Time;durP1;ratioP1;P1;durP2;ratioP2;P2;SDS_P1;SDS_P2;PMS_P1;PMS_P2;Temp;Humidity;BMP_temperature;BMP_pressure;BME280_temperature;BME280_humidity;BME280_pressure;Samples;Min_cycle;Max_cycle;Signal;HPM_P1;HPM_P2
2022/09/20 00:05:07;;;;;;;3.50;1.90;;;10.20;1.00;;;;;;10532379;28;20212;-87
2022/09/20 00:10:30;;;;;;;4.73;1.80;;;10.20;58.60;;;;;;10528563;28;20193;-87
2022/09/20 00:15:51;;;;;;;3.80;1.87;;;10.20;48.20;;;;;;10524646;28;20232;-88
2022/09/20 00:21:16;;;;;;;2.83;1.43;;;10.20;53.80;;;;;;10551800;28;20201;-86
2022/09/20 00:26:37;;;;;;;3.63;2.00;;;10.20;89.10;;;;;;10510948;28;20224;-89
2022/09/20 00:31:58;;;;;;;2.80;1.83;;;10.20;59.40;;;;;;10514971;28;20244;-80
2022/09/20 00:37:20;;;;;;;3.97;2.10;;;10.20;46.30;;;;;;10551607;28;20224;-89
2022/09/20 00:42:41;;;;;;;1.80;1.60;;;10.30;54.10;;;;;;10566853;28;20485;-89
2022/09/20 00:48:14;;;;;;;3.00;1.80;;;10.30;96.10;;;;;;10551541;28;20500;-87
2022/09/20 00:53:43;;;;;;;3.37;2.10;;;10.30;94.60;;;;;;10565421;28;20213;-81
2022/09/20 00:59:16;;;;;;;3.73;2.27;;;10.30;95.00;;;;;;10556690;28;20206;-80
2022/09/20 01:04:40;;;;;;;2.20;1.60;;;10.30;78.40;;;;;;10571520;28;20280;-88
2022/09/20 01:10:02;;;;;;;1.90;1.57;;;10.30;63.60;;;;;;10550271;28;20211;-88
2022/09/20 01:15:27;;;;;;;2.47;1.47;;;10.30;64.20;;;;;;10549859;28;20246;-88
2022/09/20 01:20:49;;;;;;;1.97;1.70;;;10.30;68.40;;;;;;10549771;28;20273;-84
2022/09/20 01:26:32;;;;;;;2.63;1.33;;;10.30;61.80;;;;;;10535655;28;20191;-89
2022/09/20 01:31:58;;;;;;;3.60;1.90;;;10.20;84.20;;;;;;10562977;28;20543;-86
2022/09/20 01:38:07;;;;;;;3.17;1.93;;;10.20;93.80;;;;;;10564131;28;20291;-87
2022/09/20 01:43:56;;;;;;;3.03;1.73;;;10.30;96.40;;;;;;10549294;28;20190;-88
2022/09/20 01:49:39;;;;;;;1.60;1.47;;;10.30;99.90;;;;;;10563127;28;20211;-81
2022/09/20 01:55:28;;;;;;;1.50;1.30;;;10.30;96.80;;;;;;10562960;28;20217;-89
2022/09/20 02:01:14;;;;;;;3.03;1.67;;;10.30;91.60;;;;;;10548053;28;20197;-87
2022/09/20 02:07:06;;;;;;;2.10;1.30;;;10.30;99.90;;;;;;10558466;28;20205;-89
2022/09/20 02:13:14;;;;;;;2.33;1.10;;;10.30;99.70;;;;;;10564099;28;20199;-80
2022/09/20 02:18:54;;;;;;;2.40;1.53;;;10.20;99.90;;;;;;10546927;28;20198;-82
2022/09/20 02:24:37;;;;;;;5.53;1.30;;;10.20;99.90;;;;;;10556759;28;20193;-81
2022/09/20 02:30:31;;;;;;;2.60;1.20;;;10.20;99.90;;;;;;10546769;28;20202;-81
2022/09/20 02:36:01;;;;;;;1.53;1.30;;;10.20;99.90;;;;;;10535876;28;20260;-81
2022/09/20 02:42:01;;;;;;;2.17;1.53;;;10.20;99.90;;;;;;10514689;28;20269;-80
2022/09/20 02:47:42;;;;;;;3.80;1.40;;;10.20;99.90;;;;;;10546379;28;20202;-83
2022/09/20 02:53:18;;;;;;;1.63;1.20;;;10.20;99.90;;;;;;10560427;28;20190;-81
2022/09/20 02:58:45;;;;;;;1.50;0.93;;;10.20;99.90;;;;;;10532042;28;20224;-80
2022/09/20 03:04:28;;;;;;;3.17;1.47;;;10.10;99.90;;;;;;10530815;28;20276;-85
2022/09/20 03:10:14;;;;;;;1.00;0.87;;;10.20;99.90;;;;;;10560618;28;20498;-80
2022/09/20 03:15:41;;;;;;;3.10;1.10;;;10.20;99.90;;;;;;10506033;28;20240;-85
2022/09/20 03:21:37;;;;;;;2.00;1.30;;;10.20;99.90;;;;;;10551468;28;20200;-80
2022/09/20 03:27:06;;;;;;;2.67;1.83;;;10.10;99.90;;;;;;10539082;28;20194;-89
2022/09/20 03:32:52;;;;;;;3.50;1.40;;;10.10;99.90;;;;;;10529155;28;20325;-80
2022/09/20 03:39:09;;;;;;;1.70;1.10;;;10.10;99.90;;;;;;10568521;28;20272;-88
2022/09/20 03:44:58;;;;;;;1.83;1.27;;;10.10;99.90;;;;;;10525628;28;20233;-87
2022/09/20 03:50:45;;;;;;;1.17;1.00;;;10.00;99.90;;;;;;10493094;28;20433;-89
2022/09/20 03:56:36;;;;;;;1.20;1.00;;;9.90;99.90;;;;;;10496810;28;20225;-87
2022/09/20 04:02:16;;;;;;;3.07;1.63;;;9.80;99.90;;;;;;10469713;28;20216;-88
2022/09/20 04:08:14;;;;;;;1.90;1.20;;;9.70;99.90;;;;;;10508423;28;20288;-85
2022/09/20 04:13:37;;;;;;;1.10;1.00;;;9.60;99.90;;;;;;10491218;28;20225;-85
2022/09/20 04:19:14;;;;;;;2.47;1.60;;;9.60;99.90;;;;;;10515997;28;20531;-80
2022/09/20 04:25:11;;;;;;;3.37;2.30;;;9.50;99.90;;;;;;10551222;28;20429;-83
2022/09/20 04:30:42;;;;;;;1.30;1.20;;;9.50;99.90;;;;;;10550811;28;20219;-80
2022/09/20 04:36:30;;;;;;;1.67;1.40;;;9.50;99.90;;;;;;10550926;28;20406;-84
2022/09/20 04:42:19;;;;;;;1.30;1.10;;;9.50;99.90;;;;;;10565801;28;20189;-87
2022/09/20 04:48:03;;;;;;;1.87;1.37;;;9.60;99.90;;;;;;10495983;28;20208;-84
2022/09/20 04:54:02;;;;;;;2.67;1.30;;;9.60;99.90;;;;;;10545513;28;20209;-82
2022/09/20 04:59:35;;;;;;;1.90;1.30;;;9.60;99.90;;;;;;10565771;28;20193;-83
2022/09/20 05:05:34;;;;;;;3.37;1.40;;;9.50;99.90;;;;;;10541827;28;20493;-88
2022/09/20 05:11:56;;;;;;;2.17;1.20;;;9.50;99.90;;;;;;10550023;28;20398;-88
2022/09/20 05:17:40;;;;;;;5.00;1.70;;;9.40;99.90;;;;;;10545070;28;20605;-87
2022/09/20 05:23:22;;;;;;;2.43;1.40;;;9.40;99.90;;;;;;10533852;28;20196;-90
2022/09/20 05:28:55;;;;;;;2.27;1.50;;;9.40;99.90;;;;;;10503134;28;20198;-83
2022/09/20 05:34:32;;;;;;;4.67;2.00;;;9.40;99.90;;;;;;10538526;28;20225;-80
2022/09/20 05:40:21;;;;;;;2.57;1.77;;;9.50;99.90;;;;;;10565609;28;20538;-79
2022/09/20 05:46:05;;;;;;;2.90;1.70;;;9.50;97.70;;;;;;10546444;28;20204;-80
2022/09/20 05:51:58;;;;;;;2.13;1.53;;;9.60;95.90;;;;;;10529659;28;20481;-86
2022/09/20 05:57:38;;;;;;;3.03;1.57;;;9.60;96.70;;;;;;10492373;28;20242;-86
2022/09/20 06:03:05;;;;;;;3.63;1.50;;;9.70;92.90;;;;;;10532008;28;20197;-89
2022/09/20 06:09:03;;;;;;;1.20;1.10;;;9.90;82.90;;;;;;10510859;28;20282;-82
2022/09/20 06:14:31;;;;;;;3.43;1.27;;;10.00;79.40;;;;;;10561668;28;20216;-80
2022/09/20 06:20:04;;;;;;;5.47;1.40;;;10.10;65.60;;;;;;10561123;28;20193;-80
2022/09/20 06:25:41;;;;;;;2.20;1.30;;;10.30;99.90;;;;;;10532719;28;20213;-83
2022/09/20 06:31:07;;;;;;;4.57;1.60;;;10.40;24.10;;;;;;10561662;28;20195;-88
2022/09/20 06:42:15;;;;;;;3.93;1.50;;;10.80;1.00;;;;;;10562221;28;20186;-80
2022/09/20 06:47:36;;;;;;;1.40;1.10;;;11.20;1.00;;;;;;10546800;28;20194;-87
2022/09/20 06:52:59;;;;;;;2.10;1.10;;;11.70;1.00;;;;;;10545959;28;20265;-82
2022/09/20 06:58:20;;;;;;;1.97;0.97;;;13.30;99.90;;;;;;10560959;28;20384;-81
2022/09/20 07:03:41;;;;;;;2.17;1.03;;;15.30;1.00;;;;;;10560825;28;20232;-86
2022/09/20 07:09:04;;;;;;;1.45;0.95;;;15.50;99.90;;;;;;10548232;28;20191;-80
2022/09/20 07:14:27;;;;;;;2.70;1.08;;;16.40;69.10;;;;;;10556541;28;20251;-82
2022/09/20 07:19:49;;;;;;;2.10;1.02;;;17.60;99.90;;;;;;10524331;28;20237;-84
2022/09/20 07:25:10;;;;;;;3.97;2.20;;;18.60;1.00;;;;;;10518378;28;20191;-84
2022/09/20 07:30:31;;;;;;;1.08;0.70;;;20.00;99.90;;;;;;10555166;28;20207;-81
2022/09/20 07:35:54;;;;;;;2.22;1.92;;;20.80;1.00;;;;;;10550902;28;20257;-82
2022/09/20 07:41:17;;;;;;;1.92;0.70;;;21.50;1.00;;;;;;10540012;28;20315;-85
2022/09/20 07:46:39;;;;;;;0.73;0.60;;;22.50;1.00;;;;;;10553351;28;20195;-81
2022/09/20 07:52:01;;;;;;;0.73;0.70;;;22.80;1.00;;;;;;10526195;28;20274;-87
2022/09/20 07:57:22;;;;;;;1.45;0.65;;;22.90;1.00;;;;;;10557653;28;20296;-86
2022/09/20 08:02:44;;;;;;;2.22;0.50;;;22.90;1.00;;;;;;10549826;28;20524;-85
2022/09/20 08:08:06;;;;;;;3.28;0.73;;;23.30;3.70;;;;;;10541068;28;20565;-82
2022/09/20 08:13:28;;;;;;;1.02;0.90;;;23.50;17.90;;;;;;10518697;28;20203;-85
2022/09/20 08:19:22;;;;;;;3.30;1.17;;;23.60;20.90;;;;;;10538594;28;20210;-81
2022/09/20 08:24:43;;;;;;;1.00;0.80;;;22.90;23.60;;;;;;10555051;28;20213;-83
2022/09/20 08:30:05;;;;;;;1.52;0.70;;;20.70;28.50;;;;;;10538222;28;20183;-80
2022/09/20 08:35:28;;;;;;;2.05;0.60;;;20.10;29.90;;;;;;10543061;28;20267;-80
2022/09/20 08:40:49;;;;;;;2.67;0.70;;;18.70;38.10;;;;;;10545533;28;20485;-84
2022/09/20 08:46:15;;;;;;;1.52;0.60;;;19.50;39.90;;;;;;10560878;28;20497;-81
2022/09/20 08:51:40;;;;;;;6.20;0.55;;;18.80;44.60;;;;;;10507324;28;20201;-81
2022/09/20 08:57:08;;;;;;;0.90;0.70;;;19.30;48.00;;;;;;10540578;28;20256;-81
2022/09/20 09:02:31;;;;;;;0.30;0.30;;;20.40;38.50;;;;;;10552314;28;20261;-79
2022/09/20 09:07:52;;;;;;;0.65;0.47;;;19.40;39.50;;;;;;10555687;28;20206;-83
2022/09/20 09:13:25;;;;;;;2.67;0.70;;;18.10;49.20;;;;;;10552414;28;20245;-81
2022/09/20 09:18:50;;;;;;;1.13;0.73;;;17.10;56.70;;;;;;10527140;28;20409;-80
2022/09/20 09:24:18;;;;;;;2.13;0.63;;;18.40;56.40;;;;;;10544136;28;20198;-87
2022/09/20 09:29:51;;;;;;;1.25;0.70;;;20.40;39.40;;;;;;10543902;28;20195;-84
2022/09/20 09:35:27;;;;;;;0.60;0.60;;;20.70;30.20;;;;;;10561284;28;20556;-90
2022/09/20 09:41:03;;;;;;;0.70;0.70;;;19.60;34.50;;;;;;10545060;28;20252;-81
2022/09/20 09:46:26;;;;;;;6.80;1.85;;;18.80;40.90;;;;;;10559218;28;20186;-82
2022/09/20 09:52:09;;;;;;;2.08;0.90;;;19.10;39.10;;;;;;10545127;28;20744;-84
2022/09/20 09:57:52;;;;;;;1.35;0.50;;;18.80;1.00;;;;;;10559955;28;20420;-82
2022/09/20 10:03:33;;;;;;;1.85;0.63;;;;;;;;;;10551015;28;20208;-80
2022/09/20 10:09:06;;;;;;;0.60;0.60;;;17.10;1.00;;;;;;10542890;28;20198;-85
2022/09/20 10:14:47;;;;;;;0.63;0.55;;;18.00;1.00;;;;;;10516970;28;20229;-82
2022/09/20 10:20:30;;;;;;;0.60;0.60;;;20.00;99.90;;;;;;10558396;28;20286;-96
2022/09/20 10:25:57;;;;;;;1.70;0.68;;;21.80;1.00;;;;;;10528156;28;20214;-86
2022/09/20 10:31:26;;;;;;;0.45;0.45;;;21.00;1.00;;;;;;10557897;28;20201;-85
2022/09/20 10:36:56;;;;;;;0.93;0.60;;;19.30;1.00;;;;;;10502477;28;20412;-88
2022/09/20 10:48:37;;;;;;;0.70;0.50;;;17.60;1.00;;;;;;10524260;28;20257;-90
2022/09/20 10:54:07;;;;;;;0.80;0.70;;;17.20;99.90;;;;;;10532275;28;20202;-84
2022/09/20 10:59:47;;;;;;;2.03;0.93;;;16.90;99.90;;;;;;10505571;28;20197;-82
2022/09/20 11:05:42;;;;;;;2.92;0.60;;;17.50;99.90;;;;;;10509437;28;20232;-79
2022/09/20 11:11:11;;;;;;;0.63;0.60;;;18.10;99.90;;;;;;10502655;28;20264;-85
2022/09/20 11:16:44;;;;;;;0.93;0.82;;;17.80;1.00;;;;;;10481890;28;20422;-93
2022/09/20 11:22:36;;;;;;;5.45;2.90;;;17.30;1.00;;;;;;10491577;28;20270;-92
2022/09/20 11:28:19;;;;;;;2.92;2.00;;;17.20;1.00;;;;;;10508712;28;20205;-93
2022/09/20 11:33:59;;;;;;;3.22;1.35;;;17.30;99.90;;;;;;10542521;28;20228;-94
2022/09/20 11:39:26;;;;;;;3.65;1.80;;;16.50;1.00;;;;;;10569035;28;20289;-84
2022/09/20 11:44:47;;;;;;;1.70;1.13;;;16.20;99.90;;;;;;10568412;28;20190;-92
2022/09/20 11:50:34;;;;;;;0.63;0.50;;;16.00;99.90;;;;;;10566912;28;20240;-94
2022/09/20 11:56:24;;;;;;;0.60;0.60;;;16.10;99.90;;;;;;10566714;28;20227;-85
2022/09/20 12:01:46;;;;;;;0.90;0.75;;;15.90;1.00;;;;;;10553723;28;20183;-86
2022/09/20 12:07:33;;;;;;;1.13;0.90;;;16.10;25.20;;;;;;10527292;28;20273;-84
2022/09/20 12:13:04;;;;;;;1.00;0.90;;;16.00;99.90;;;;;;10523820;28;20196;-96
2022/09/20 12:18:34;;;;;;;1.42;1.10;;;15.90;1.00;;;;;;10547261;28;20565;-89
2022/09/20 12:23:56;;;;;;;0.95;0.80;;;17.90;1.00;;;;;;10550553;28;20446;-92
2022/09/20 12:29:50;;;;;;;2.00;0.90;;;19.90;1.00;;;;;;10548049;28;20217;-80
2022/09/20 12:35:37;;;;;;;0.70;0.70;;;21.10;99.90;;;;;;10548551;28;20249;-93
2022/09/20 12:41:16;;;;;;;0.85;0.80;;;21.80;1.00;;;;;;10563838;28;20190;-89
2022/09/20 12:46:48;;;;;;;1.70;0.90;;;21.20;1.00;;;;;;10548197;28;20202;-82
2022/09/20 12:58:14;;;;;;;1.85;0.80;;;19.50;1.00;;;;;;10546145;28;20240;-87
2022/09/20 13:03:45;;;;;;;0.73;0.60;;;19.50;1.00;;;;;;10507304;28;20203;-87
2022/09/20 13:09:09;;;;;;;0.75;0.60;;;18.70;1.00;;;;;;10511664;28;20231;-91
2022/09/20 13:14:32;;;;;;;1.10;0.80;;;18.80;1.00;;;;;;10519431;28;20223;-84
2022/09/20 13:19:55;;;;;;;2.10;0.60;;;20.00;1.00;;;;;;10543470;28;20238;-85
2022/09/20 13:25:20;;;;;;;1.52;0.80;;;20.80;99.90;;;;;;10560876;28;20445;-81
2022/09/20 13:30:41;;;;;;;1.35;0.80;;;20.60;99.90;;;;;;10532895;28;20186;-93
2022/09/20 13:36:03;;;;;;;1.13;0.70;;;19.90;99.90;;;;;;10548701;28;20596;-88
2022/09/20 13:41:30;;;;;;;1.35;0.80;;;19.50;99.90;;;;;;10545953;28;20285;-95
2022/09/20 13:46:51;;;;;;;4.63;1.10;;;19.90;99.90;;;;;;10546553;28;20195;-90
2022/09/20 13:52:24;;;;;;;3.08;1.00;;;19.90;99.90;;;;;;10557794;28;20198;-88
2022/09/20 13:57:46;;;;;;;4.00;1.40;;;19.10;99.90;;;;;;10544330;28;20279;-94
2022/09/20 14:03:16;;;;;;;1.65;1.25;;;18.00;99.90;;;;;;10559244;28;20220;-87
2022/09/20 14:08:50;;;;;;;1.38;1.15;;;17.10;99.90;;;;;;10561492;28;20205;-89
2022/09/20 14:14:13;;;;;;;2.40;1.40;;;16.40;1.00;;;;;;10539852;28;20196;-83
2022/09/20 14:19:42;;;;;;;3.83;1.85;;;15.90;1.00;;;;;;10572244;28;20220;-83
2022/09/20 14:25:13;;;;;;;3.97;2.22;;;15.70;1.00;;;;;;10524785;28;20212;-91
2022/09/20 14:30:36;;;;;;;3.50;2.20;;;15.50;1.00;;;;;;10534641;28;20207;-83
2022/09/20 14:35:58;;;;;;;3.70;2.40;;;15.10;99.90;;;;;;10557643;28;20239;-87
2022/09/20 14:41:35;;;;;;;3.35;2.30;;;15.10;99.90;;;;;;10556738;28;20199;-91
2022/09/20 14:46:58;;;;;;;7.10;4.00;;;15.20;99.90;;;;;;10557203;28;20192;-82
2022/09/20 14:52:25;;;;;;;8.85;3.78;;;15.50;99.90;;;;;;10541806;28;20191;-93
2022/09/20 14:57:47;;;;;;;6.43;3.58;;;15.70;99.90;;;;;;10542536;28;20233;-88
2022/09/20 15:03:14;;;;;;;3.90;3.50;;;15.80;1.00;;;;;;10535663;28;20209;-84
2022/09/20 15:08:37;;;;;;;4.85;3.63;;;15.80;1.00;;;;;;10541714;28;20204;-93
2022/09/20 15:13:59;;;;;;;4.97;3.03;;;15.70;1.00;;;;;;10566549;28;20203;-84
2022/09/20 15:19:21;;;;;;;6.25;4.15;;;15.40;99.90;;;;;;10565642;28;20219;-92
2022/09/20 15:24:43;;;;;;;9.55;5.70;;;15.00;1.00;;;;;;10536628;28;20198;-86
2022/09/20 15:30:04;;;;;;;12.43;9.15;;;14.80;1.00;;;;;;10539098;28;20221;-89
2022/09/20 15:35:26;;;;;;;6.53;4.80;;;14.80;99.90;;;;;;10568177;28;20243;-86
2022/09/20 15:40:48;;;;;;;15.05;8.52;;;14.80;28.80;;;;;;10554302;28;20204;-90
2022/09/20 15:46:18;;;;;;;7.10;4.85;;;14.90;99.90;;;;;;10553950;28;20274;-91
2022/09/20 15:51:39;;;;;;;14.70;9.97;;;14.70;99.90;;;;;;10568554;28;20204;-89
2022/09/20 15:57:00;;;;;;;15.80;8.80;;;14.50;1.00;;;;;;10553858;28;20491;-90
2022/09/20 16:02:23;;;;;;;22.97;13.40;;;14.20;1.00;;;;;;10567989;28;20272;-92
2022/09/20 16:07:45;;;;;;;8.67;6.23;;;13.90;1.00;;;;;;10569450;28;20208;-91
2022/09/20 16:13:06;;;;;;;5.40;3.33;;;13.70;1.00;;;;;;10567890;28;20242;-89
2022/09/20 16:24:08;;;;;;;11.77;7.17;;;13.20;1.00;;;;;;10514550;28;20193;-80
2022/09/20 16:29:30;;;;;;;7.77;5.00;;;13.10;1.00;;;;;;10565425;28;20211;-81
2022/09/20 16:34:53;;;;;;;8.10;4.90;;;13.10;1.00;;;;;;10503173;28;20239;-82
2022/09/20 16:40:15;;;;;;;11.00;7.17;;;13.00;1.00;;;;;;10551357;28;20197;-80
2022/09/20 16:45:36;;;;;;;15.77;9.97;;;13.10;1.00;;;;;;10565595;28;20209;-80
2022/09/20 16:51:01;;;;;;;12.63;5.53;;;13.10;1.00;;;;;;10550568;28;20197;-81
2022/09/20 16:56:24;;;;;;;10.13;5.40;;;13.00;1.00;;;;;;10550659;28;20409;-86
2022/09/20 17:01:46;;;;;;;5.30;3.67;;;12.90;1.00;;;;;;10547344;28;20271;-84
2022/09/20 17:07:08;;;;;;;5.23;3.97;;;12.70;1.00;;;;;;10549574;28;20212;-79
2022/09/20 17:12:32;;;;;;;9.60;4.13;;;12.70;17.10;;;;;;10549101;28;20223;-81
2022/09/20 17:17:53;;;;;;;7.57;5.10;;;12.60;36.80;;;;;;10563578;28;20308;-79
2022/09/20 17:23:15;;;;;;;5.33;4.03;;;12.60;33.60;;;;;;10565310;28;20216;-87
2022/09/20 17:28:39;;;;;;;3.37;2.80;;;12.60;1.00;;;;;;10525564;28;20208;-86
2022/09/20 17:34:02;;;;;;;5.53;2.47;;;12.50;1.00;;;;;;10556166;28;20262;-79
2022/09/20 17:39:24;;;;;;;5.93;4.07;;;12.50;1.00;;;;;;10563309;28;20299;-88
2022/09/20 17:44:45;;;;;;;7.30;5.43;;;12.40;1.00;;;;;;10506750;28;20197;-79
2022/09/20 17:50:07;;;;;;;7.07;4.67;;;12.40;1.00;;;;;;10527470;28;20224;-79
2022/09/20 17:55:29;;;;;;;5.67;4.20;;;12.30;18.60;;;;;;10562682;28;20372;-80
2022/09/20 18:00:55;;;;;;;7.73;3.77;;;12.30;64.20;;;;;;10548829;28;20235;-81
2022/09/20 18:06:19;;;;;;;6.73;4.10;;;12.30;71.10;;;;;;10552226;28;20203;-79
2022/09/20 18:11:47;;;;;;;9.60;4.93;;;12.40;86.60;;;;;;10547165;28;20243;-89
2022/09/20 18:17:09;;;;;;;7.97;4.93;;;12.40;99.90;;;;;;10557427;28;20249;-90
2022/09/20 18:22:30;;;;;;;16.50;8.33;;;12.50;99.90;;;;;;10517745;28;20192;-87
2022/09/20 18:27:52;;;;;;;12.67;8.77;;;12.40;94.00;;;;;;10528895;28;20203;-89
2022/09/20 18:33:17;;;;;;;16.87;10.07;;;12.30;92.10;;;;;;10554451;28;20413;-90
2022/09/20 18:38:42;;;;;;;14.70;8.53;;;12.30;99.90;;;;;;10564157;28;20230;-87
2022/09/20 18:44:06;;;;;;;12.23;6.80;;;12.20;99.90;;;;;;10591270;28;20176;-83
2022/09/20 18:49:29;;;;;;;11.37;7.20;;;12.20;99.90;;;;;;10589897;28;20179;-80
2022/09/20 18:54:54;;;;;;;10.07;6.80;;;12.20;99.90;;;;;;10548026;28;20204;-80
2022/09/20 19:00:16;;;;;;;8.93;5.37;;;12.10;99.90;;;;;;10560463;28;20189;-80
2022/09/20 19:05:44;;;;;;;13.00;7.77;;;12.10;99.90;;;;;;10547692;28;20512;-87
2022/09/20 19:11:11;;;;;;;13.97;8.63;;;12.10;99.90;;;;;;10506499;28;20202;-86
2022/09/20 19:16:35;;;;;;;16.37;7.97;;;12.00;99.90;;;;;;10529981;28;20223;-90
2022/09/20 19:22:15;;;;;;;18.40;10.20;;;11.90;99.90;;;;;;10524567;28;20275;-80
2022/09/20 19:27:37;;;;;;;24.23;12.70;;;11.90;99.90;;;;;;10560510;28;20500;-80
2022/09/20 19:32:58;;;;;;;18.20;11.50;;;11.80;99.90;;;;;;10536399;28;20236;-81
2022/09/20 19:38:42;;;;;;;19.83;10.77;;;11.80;99.90;;;;;;10507405;28;20247;-87
2022/09/20 19:44:46;;;;;;;20.47;10.17;;;11.80;99.90;;;;;;10544879;28;20532;-80
2022/09/20 19:50:15;;;;;;;20.00;9.37;;;11.70;99.90;;;;;;10549796;28;20201;-80
2022/09/20 19:55:37;;;;;;;16.20;6.90;;;11.70;99.90;;;;;;10545845;28;20257;-79
2022/09/20 20:00:59;;;;;;;9.33;5.23;;;11.60;99.90;;;;;;10551942;28;20262;-80
2022/09/20 20:06:36;;;;;;;11.10;6.20;;;11.60;99.90;;;;;;10531335;28;20199;-88
2022/09/20 20:12:15;;;;;;;10.20;5.30;;;11.50;99.90;;;;;;10535923;28;20259;-81
2022/09/20 20:18:05;;;;;;;9.70;4.40;;;11.50;99.90;;;;;;10547871;28;20246;-81
2022/09/20 20:24:03;;;;;;;8.00;4.40;;;11.50;99.90;;;;;;10569269;28;20398;-80
2022/09/20 20:29:24;;;;;;;7.43;4.87;;;11.60;99.90;;;;;;10566029;28;20417;-80
2022/09/20 20:34:46;;;;;;;9.67;4.77;;;11.50;99.90;;;;;;10565765;28;20567;-91
2022/09/20 20:40:10;;;;;;;9.87;4.83;;;11.50;99.90;;;;;;10565565;28;20230;-81
2022/09/20 20:45:32;;;;;;;8.80;5.10;;;11.50;99.90;;;;;;10557944;28;20295;-81
2022/09/20 20:51:01;;;;;;;8.93;4.37;;;11.50;99.90;;;;;;10556258;28;20215;-90
2022/09/20 20:56:27;;;;;;;7.73;3.30;;;11.40;99.90;;;;;;10577365;28;20219;-91
2022/09/20 21:01:48;;;;;;;4.13;2.97;;;11.50;99.90;;;;;;10569977;28;20200;-91
2022/09/20 21:07:10;;;;;;;5.03;2.57;;;11.50;99.90;;;;;;10511896;28;20286;-87
2022/09/20 21:12:31;;;;;;;4.73;2.50;;;11.50;99.90;;;;;;10522975;28;20487;-88
2022/09/20 21:17:52;;;;;;;3.27;2.00;;;11.50;99.90;;;;;;10543698;28;20295;-88
2022/09/20 21:23:14;;;;;;;3.90;2.37;;;11.50;99.90;;;;;;10564870;28;20215;-89
2022/09/20 21:28:37;;;;;;;2.47;1.60;;;11.50;99.90;;;;;;10522893;28;20226;-89
2022/09/20 21:33:58;;;;;;;3.83;1.90;;;11.40;99.90;;;;;;10522917;28;20231;-88
2022/09/20 21:39:20;;;;;;;4.23;2.60;;;11.30;99.90;;;;;;10523258;28;20245;-87
2022/09/20 21:44:42;;;;;;;4.57;2.97;;;11.30;99.90;;;;;;10551102;28;20199;-88
2022/09/20 21:50:03;;;;;;;4.47;2.67;;;11.30;99.90;;;;;;10549015;28;20275;-81
2022/09/20 21:55:24;;;;;;;3.60;2.20;;;11.20;99.90;;;;;;10566525;28;20194;-89
2022/09/20 22:00:59;;;;;;;3.60;2.10;;;11.10;99.90;;;;;;10551216;28;20204;-90
2022/09/20 22:06:31;;;;;;;6.40;2.43;;;11.00;99.90;;;;;;10538838;28;20207;-80
2022/09/20 22:11:53;;;;;;;4.43;2.77;;;11.00;99.90;;;;;;10548512;28;20213;-80
2022/09/20 22:17:14;;;;;;;6.23;3.53;;;11.10;99.90;;;;;;10561826;28;20235;-80
2022/09/20 22:22:35;;;;;;;7.20;4.13;;;11.00;99.90;;;;;;10561407;28;20197;-91
2022/09/20 22:27:57;;;;;;;7.07;3.50;;;10.90;99.90;;;;;;10561562;28;20246;-91
2022/09/20 22:33:18;;;;;;;4.70;2.83;;;10.80;99.90;;;;;;10562136;28;20237;-86
2022/09/20 22:38:41;;;;;;;3.27;2.47;;;10.90;99.90;;;;;;10561611;28;20219;-80
2022/09/20 22:44:03;;;;;;;3.43;2.43;;;10.80;99.90;;;;;;10561279;28;20191;-81
2022/09/20 22:49:24;;;;;;;4.50;2.37;;;10.80;99.90;;;;;;10546846;28;20221;-89
2022/09/20 22:54:45;;;;;;;3.80;2.00;;;10.70;99.90;;;;;;10562735;28;20257;-91
2022/09/20 23:00:07;;;;;;;2.93;2.30;;;10.70;99.90;;;;;;10546715;28;20418;-82
2022/09/20 23:05:28;;;;;;;6.00;3.00;;;10.50;99.90;;;;;;10546646;28;20212;-89
2022/09/20 23:10:58;;;;;;;7.73;3.00;;;10.50;99.90;;;;;;10530654;28;20199;-90
2022/09/20 23:16:22;;;;;;;3.73;2.13;;;10.50;99.90;;;;;;10555370;28;20541;-91
2022/09/20 23:21:44;;;;;;;4.50;2.23;;;10.50;99.90;;;;;;10511111;28;20269;-87
2022/09/20 23:27:06;;;;;;;5.37;2.47;;;10.50;99.90;;;;;;10568509;28;20270;-87
2022/09/20 23:32:27;;;;;;;4.60;1.90;;;10.50;99.90;;;;;;10565128;28;20233;-87
2022/09/20 23:37:49;;;;;;;3.60;2.23;;;10.40;99.90;;;;;;10550454;28;20499;-80
2022/09/20 23:43:11;;;;;;;2.37;1.80;;;10.40;99.90;;;;;;10539370;28;20195;-83
2022/09/20 23:48:35;;;;;;;3.03;2.00;;;10.30;99.90;;;;;;10568060;28;20473;-84
2022/09/20 23:53:56;;;;;;;3.90;2.33;;;10.30;99.90;;;;;;10569103;28;20186;-92
2022/09/20 23:59:18;;;;;;;3.73;2.57;;;10.30;99.90;;;;;;10568133;28;20292;-90
